Time;durP1;ratioP1;P1;durP2;ratioP2;P2;SDS_P1;SDS_P2;PMS_P1;PMS_P2;Temp;Humidity;BMP_temperature;BMP_pressure;BME280_temperature;BME280_humidity;BME280_pressure;Samples;Min_cycle;Max_cycle;Signal;HPM_P1;HPM_P2
2022/10/29 00:00:24;;;;;;;2.72;1.35;;;24.40;57.30;;;;;;5011114;28;20502;-67
2022/10/29 00:02:49;;;;;;;2.47;1.50;;;24.40;57.30;;;;;;5006556;28;20396;-67
2022/10/29 00:05:15;;;;;;;2.25;1.33;;;24.30;57.30;;;;;;5014875;28;20026;-66
2022/10/29 00:07:41;;;;;;;2.03;1.27;;;24.30;57.30;;;;;;5016570;28;20562;-67
2022/10/29 00:10:07;;;;;;;2.50;1.38;;;24.30;57.30;;;;;;5020680;28;20025;-68
2022/10/29 00:12:33;;;;;;;2.25;1.30;;;24.30;57.30;;;;;;5015074;28;20472;-67
2022/10/29 00:14:58;;;;;;;2.47;1.58;;;24.30;57.40;;;;;;5011205;28;20029;-67
2022/10/29 00:17:24;;;;;;;2.10;1.30;;;24.30;57.40;;;;;;5019736;28;20029;-67
2022/10/29 00:19:50;;;;;;;2.25;1.30;;;24.30;57.40;;;;;;5018028;28;20037;-67
2022/10/29 00:22:15;;;;;;;1.73;1.13;;;24.30;57.50;;;;;;5016653;28;20504;-67
2022/10/29 00:24:41;;;;;;;2.28;1.30;;;24.20;57.40;;;;;;5012115;28;20036;-67
2022/10/29 00:27:06;;;;;;;1.88;1.20;;;24.20;57.40;;;;;;5018507;28;20048;-67
2022/10/29 00:29:32;;;;;;;4.28;1.40;;;24.20;57.40;;;;;;5017600;28;20116;-67
2022/10/29 00:31:58;;;;;;;1.98;1.23;;;24.20;57.40;;;;;;5012711;28;20034;-67
2022/10/29 00:34:23;;;;;;;2.35;1.40;;;24.20;57.50;;;;;;5013844;28;20533;-66
2022/10/29 00:36:49;;;;;;;2.45;1.45;;;24.20;57.50;;;;;;5007646;28;20038;-67
2022/10/29 00:39:15;;;;;;;1.73;1.15;;;24.20;57.50;;;;;;5002529;28;20040;-67
2022/10/29 00:41:42;;;;;;;3.05;1.20;;;24.10;57.50;;;;;;5010083;28;20064;-67
2022/10/29 00:44:13;;;;;;;1.98;1.10;;;24.20;57.50;;;;;;5013466;28;20022;-66
2022/10/29 00:46:42;;;;;;;1.67;1.17;;;24.10;57.50;;;;;;5011901;28;20022;-67
2022/10/29 00:49:09;;;;;;;1.70;1.25;;;24.10;57.50;;;;;;5007702;28;20022;-67
2022/10/29 00:51:35;;;;;;;1.85;1.27;;;24.10;57.50;;;;;;5007314;28;20401;-67
2022/10/29 00:54:08;;;;;;;1.77;1.20;;;24.10;57.60;;;;;;5015684;28;20034;-67
2022/10/29 00:56:51;;;;;;;1.90;1.27;;;24.10;57.60;;;;;;5021747;28;20065;-67
2022/10/29 00:59:17;;;;;;;1.85;1.10;;;24.10;57.60;;;;;;5016910;28;20026;-66
2022/10/29 01:01:45;;;;;;;2.22;1.30;;;24.10;57.70;;;;;;5013856;28;20065;-67
2022/10/29 01:04:11;;;;;;;2.03;1.10;;;24.10;57.60;;;;;;5015137;28;20033;-66
2022/10/29 01:06:37;;;;;;;2.13;1.25;;;24.00;57.60;;;;;;5016908;28;20481;-66
2022/10/29 01:09:03;;;;;;;2.00;1.20;;;24.00;57.60;;;;;;5017837;28;20076;-67
2022/10/29 01:11:47;;;;;;;2.10;1.17;;;24.00;57.70;;;;;;5019833;28;20068;-67
2022/10/29 01:14:43;;;;;;;1.55;1.13;;;24.00;57.70;;;;;;5009499;28;20013;-66
2022/10/29 01:17:25;;;;;;;1.77;1.10;;;24.00;57.70;;;;;;5012261;28;20053;-67
2022/10/29 01:20:09;;;;;;;1.63;1.13;;;24.00;57.80;;;;;;5019625;28;20028;-66
2022/10/29 01:22:55;;;;;;;2.10;1.30;;;23.90;57.70;;;;;;5017214;28;20025;-66
2022/10/29 01:25:36;;;;;;;1.70;1.30;;;23.90;57.80;;;;;;5017667;28;20041;-67
2022/10/29 01:28:26;;;;;;;2.38;1.10;;;23.90;58.30;;;;;;5012386;28;20026;-66
2022/10/29 01:31:26;;;;;;;1.70;1.10;;;23.90;57.90;;;;;;5013597;28;20084;-66
2022/10/29 01:34:03;;;;;;;2.00;1.30;;;23.90;57.90;;;;;;5018759;28;20443;-66
2022/10/29 01:36:32;;;;;;;2.03;1.13;;;23.90;57.90;;;;;;5018318;28;20485;-67
2022/10/29 01:39:13;;;;;;;1.85;1.15;;;23.80;57.90;;;;;;5017448;28;20062;-66
2022/10/29 01:42:01;;;;;;;1.55;1.02;;;23.80;57.90;;;;;;5017890;28;20030;-67
2022/10/29 01:44:36;;;;;;;1.65;1.17;;;23.80;58.00;;;;;;5017113;28;20032;-66
2022/10/29 01:47:04;;;;;;;1.80;1.13;;;23.80;58.00;;;;;;5020526;28;20037;-66
2022/10/29 01:49:39;;;;;;;2.08;1.20;;;23.80;58.00;;;;;;5018832;28;20121;-66
2022/10/29 01:52:08;;;;;;;1.83;1.10;;;23.80;58.00;;;;;;5018479;28;20029;-66
2022/10/29 01:54:38;;;;;;;2.00;1.30;;;23.80;58.00;;;;;;5021982;28;20550;-66
2022/10/29 01:57:41;;;;;;;1.63;1.23;;;23.80;58.10;;;;;;5016641;28;20038;-66
2022/10/29 02:00:18;;;;;;;1.92;1.20;;;23.80;58.10;;;;;;5018762;28;20491;-65
2022/10/29 02:02:46;;;;;;;1.85;1.10;;;23.80;58.10;;;;;;5013459;28;20068;-66
2022/10/29 02:05:26;;;;;;;1.05;0.90;;;23.70;58.00;;;;;;5012882;28;20033;-67
2022/10/29 02:07:58;;;;;;;1.85;1.10;;;23.70;58.10;;;;;;5018776;28;20026;-65
2022/10/29 02:10:53;;;;;;;1.33;1.17;;;23.70;58.00;;;;;;5017589;28;20018;-67
2022/10/29 02:13:25;;;;;;;1.85;1.23;;;23.70;58.00;;;;;;4996489;28;20046;-67
2022/10/29 02:15:54;;;;;;;1.40;1.10;;;23.70;58.10;;;;;;5020205;28;20022;-66
2022/10/29 02:18:19;;;;;;;1.95;1.20;;;23.70;58.20;;;;;;5020381;28;20173;-65
2022/10/29 02:20:46;;;;;;;2.03;1.20;;;23.60;58.10;;;;;;5008917;28;20044;-67
2022/10/29 02:23:13;;;;;;;1.50;1.05;;;23.70;58.20;;;;;;5027863;28;20026;-67
2022/10/29 02:25:38;;;;;;;1.67;1.10;;;23.70;58.20;;;;;;5015587;28;20030;-66
2022/10/29 02:28:04;;;;;;;1.92;1.20;;;23.70;58.20;;;;;;5011133;28;20028;-67
2022/10/29 02:30:29;;;;;;;1.92;1.23;;;23.60;58.10;;;;;;5008370;28;20504;-67
2022/10/29 02:32:55;;;;;;;2.10;1.25;;;23.60;58.10;;;;;;5017644;28;20030;-67
2022/10/29 02:35:21;;;;;;;1.80;1.10;;;23.70;58.20;;;;;;5009910;28;20486;-66
2022/10/29 02:37:46;;;;;;;1.85;1.30;;;23.60;58.10;;;;;;5019928;28;20105;-66
2022/10/29 02:40:12;;;;;;;1.77;1.13;;;23.60;58.20;;;;;;5020604;28;20030;-67
2022/10/29 02:42:38;;;;;;;2.17;1.20;;;23.60;58.20;;;;;;5023518;28;20055;-66
2022/10/29 02:45:04;;;;;;;2.17;1.30;;;23.60;58.20;;;;;;5014517;28;20516;-66
2022/10/29 02:47:29;;;;;;;2.10;1.15;;;23.60;58.20;;;;;;5014574;28;20053;-67
2022/10/29 02:49:55;;;;;;;1.70;1.10;;;23.50;58.10;;;;;;5021442;28;20062;-66
2022/10/29 02:52:20;;;;;;;1.73;1.20;;;23.60;58.20;;;;;;5025453;28;20049;-67
2022/10/29 02:54:46;;;;;;;2.22;1.40;;;23.60;58.20;;;;;;5022303;28;20033;-66
2022/10/29 02:57:11;;;;;;;2.05;1.20;;;23.50;58.20;;;;;;5010256;28;20481;-66
2022/10/29 02:59:37;;;;;;;1.20;0.90;;;23.50;58.20;;;;;;5013548;28;20026;-66
2022/10/29 03:02:03;;;;;;;1.83;1.20;;;23.50;58.20;;;;;;5014551;28;20370;-66
2022/10/29 03:04:28;;;;;;;1.85;1.20;;;23.50;58.70;;;;;;5014759;28;20025;-68
2022/10/29 03:06:54;;;;;;;1.40;1.00;;;23.50;58.20;;;;;;5013334;28;20397;-66
2022/10/29 03:09:20;;;;;;;1.75;1.10;;;23.50;58.10;;;;;;5007690;28;20033;-66
2022/10/29 03:11:45;;;;;;;1.45;1.02;;;23.50;58.20;;;;;;5005235;28;20061;-68
2022/10/29 03:14:11;;;;;;;1.98;1.20;;;23.50;58.20;;;;;;5009708;28;20058;-67
2022/10/29 03:16:37;;;;;;;1.38;0.90;;;23.50;58.20;;;;;;5016192;28;20018;-68
2022/10/29 03:19:02;;;;;;;1.60;1.20;;;23.50;58.20;;;;;;5013253;28;20501;-66
2022/10/29 03:21:28;;;;;;;1.75;1.10;;;23.50;58.20;;;;;;5011176;28;20026;-65
2022/10/29 03:23:54;;;;;;;2.00;1.30;;;23.50;58.20;;;;;;5016134;28;20475;-66
2022/10/29 03:26:19;;;;;;;1.65;1.00;;;23.50;58.20;;;;;;5018893;28;20388;-65
2022/10/29 03:28:45;;;;;;;1.83;1.10;;;23.50;58.30;;;;;;5020838;28;20400;-67
2022/10/29 03:31:11;;;;;;;1.38;1.10;;;23.50;58.30;;;;;;5022742;28;20040;-68
2022/10/29 03:33:36;;;;;;;1.55;1.02;;;23.50;58.30;;;;;;5014633;28;20140;-67
2022/10/29 03:36:04;;;;;;;1.77;1.10;;;23.40;58.20;;;;;;5017533;28;20033;-67
2022/10/29 03:38:30;;;;;;;1.65;1.10;;;23.40;58.20;;;;;;5015631;28;20033;-67
2022/10/29 03:40:56;;;;;;;1.65;1.30;;;23.50;58.30;;;;;;5017719;28;20026;-67
2022/10/29 03:43:21;;;;;;;1.90;1.10;;;23.40;58.20;;;;;;5011838;28;20106;-66
2022/10/29 03:45:54;;;;;;;1.58;1.00;;;23.40;58.20;;;;;;5010405;28;20041;-67
2022/10/29 03:48:20;;;;;;;1.65;1.17;;;23.40;58.20;;;;;;5009459;28;20029;-66
2022/10/29 03:51:00;;;;;;;1.83;1.05;;;23.40;58.20;;;;;;5012512;28;20034;-66
2022/10/29 03:53:27;;;;;;;1.80;1.00;;;23.40;58.20;;;;;;5019326;28;20033;-67
2022/10/29 03:55:54;;;;;;;1.60;1.15;;;23.40;58.30;;;;;;5013373;28;20051;-67
2022/10/29 03:58:21;;;;;;;2.30;1.30;;;23.40;58.30;;;;;;5013141;28;20524;-67
2022/10/29 04:01:00;;;;;;;1.40;1.05;;;23.40;58.30;;;;;;5013025;28;20487;-67
2022/10/29 04:03:28;;;;;;;2.15;1.10;;;23.40;58.20;;;;;;5011392;28;20505;-68
2022/10/29 04:05:54;;;;;;;1.38;1.00;;;23.40;58.30;;;;;;5014495;28;20068;-67
2022/10/29 04:08:20;;;;;;;1.67;1.23;;;23.40;58.30;;;;;;5014626;28;20033;-67
2022/10/29 04:10:49;;;;;;;1.70;1.25;;;23.40;58.30;;;;;;5013402;28;20524;-67
2022/10/29 04:13:15;;;;;;;1.55;1.13;;;23.40;58.30;;;;;;5038198;28;20038;-66
2022/10/29 04:15:40;;;;;;;1.83;1.25;;;23.40;58.30;;;;;;5024378;28;20033;-67
2022/10/29 04:18:07;;;;;;;1.08;0.85;;;23.40;58.30;;;;;;5015833;28;20021;-67
2022/10/29 04:20:33;;;;;;;1.30;0.90;;;23.40;58.30;;;;;;5012010;28;20127;-67
2022/10/29 04:22:59;;;;;;;1.92;1.10;;;23.40;58.30;;;;;;5012009;28;20018;-67
2022/10/29 04:25:24;;;;;;;1.67;1.10;;;23.30;58.20;;;;;;5015679;28;20025;-67
2022/10/29 04:27:53;;;;;;;1.50;1.00;;;23.40;58.30;;;;;;5019961;28;20025;-67
2022/10/29 04:30:19;;;;;;;1.40;0.98;;;23.40;58.30;;;;;;5010789;28;20053;-66
2022/10/29 04:32:45;;;;;;;1.63;1.10;;;23.30;58.30;;;;;;5017404;28;20516;-66
2022/10/29 04:35:10;;;;;;;1.50;1.08;;;23.30;58.30;;;;;;5017229;28;20534;-67
2022/10/29 04:37:36;;;;;;;1.17;0.90;;;23.30;58.30;;;;;;5016652;28;20477;-67
2022/10/29 04:40:02;;;;;;;1.58;1.08;;;23.30;58.30;;;;;;5012353;28;20034;-66
2022/10/29 04:42:27;;;;;;;1.42;1.10;;;23.30;58.30;;;;;;5009631;28;20041;-68
2022/10/29 04:44:53;;;;;;;1.15;1.00;;;23.30;58.30;;;;;;5018044;28;20140;-67
2022/10/29 04:47:18;;;;;;;1.55;1.00;;;23.30;58.30;;;;;;5017190;28;20481;-66
2022/10/29 04:49:44;;;;;;;1.83;1.20;;;23.30;58.30;;;;;;5008166;28;20415;-67
2022/10/29 04:52:09;;;;;;;1.65;1.00;;;23.30;58.30;;;;;;5008832;28;20042;-66
2022/10/29 04:54:35;;;;;;;1.35;1.02;;;23.30;58.30;;;;;;4999471;28;20058;-66
2022/10/29 04:57:01;;;;;;;1.13;0.98;;;23.30;58.30;;;;;;5018561;28;20087;-67
2022/10/29 04:59:26;;;;;;;1.55;1.00;;;23.30;58.30;;;;;;5009784;28;20049;-67
2022/10/29 05:01:52;;;;;;;1.90;1.20;;;23.20;58.20;;;;;;5020605;28;20099;-66
2022/10/29 05:04:17;;;;;;;1.90;1.15;;;23.20;58.30;;;;;;5020605;28;20480;-67
2022/10/29 05:06:43;;;;;;;1.60;1.10;;;23.20;58.30;;;;;;5011561;28;20030;-67
2022/10/29 05:09:08;;;;;;;1.48;1.00;;;23.20;58.30;;;;;;5010029;28;20038;-67
2022/10/29 05:11:34;;;;;;;1.10;0.80;;;23.30;58.30;;;;;;5021252;28;20033;-68
2022/10/29 05:14:00;;;;;;;1.40;1.10;;;23.20;58.30;;;;;;5020051;28;20124;-66
2022/10/29 05:16:25;;;;;;;1.33;1.00;;;23.20;58.30;;;;;;5017972;28;20032;-67
2022/10/29 05:18:51;;;;;;;1.42;1.00;;;23.20;58.30;;;;;;5009413;28;20116;-67
2022/10/29 05:21:16;;;;;;;1.25;0.90;;;23.20;58.30;;;;;;5014973;28;20044;-66
2022/10/29 05:23:42;;;;;;;1.40;1.00;;;23.20;58.30;;;;;;5017721;28;20026;-66
2022/10/29 05:26:07;;;;;;;1.25;0.98;;;23.20;58.30;;;;;;5015156;28;20034;-67
2022/10/29 05:28:33;;;;;;;1.63;1.10;;;23.20;58.30;;;;;;5007575;28;20173;-66
2022/10/29 05:31:03;;;;;;;1.83;1.08;;;23.20;58.30;;;;;;5002802;28;20363;-66
2022/10/29 05:33:28;;;;;;;1.33;1.00;;;23.20;58.40;;;;;;5005924;28;20030;-67
2022/10/29 05:35:54;;;;;;;1.90;1.17;;;23.20;58.30;;;;;;5012256;28;20101;-66
2022/10/29 05:38:19;;;;;;;1.10;0.90;;;23.20;58.40;;;;;;5016027;28;20128;-67
2022/10/29 05:40:45;;;;;;;1.10;0.90;;;23.20;58.40;;;;;;5004366;28;20028;-66
2022/10/29 05:43:15;;;;;;;1.60;1.10;;;23.20;58.40;;;;;;5006414;28;20029;-67
2022/10/29 05:45:42;;;;;;;1.35;0.90;;;23.10;58.30;;;;;;5007256;28;20474;-66
2022/10/29 05:48:09;;;;;;;1.80;1.00;;;23.10;58.30;;;;;;5011439;28;20054;-66
2022/10/29 05:50:35;;;;;;;1.50;1.00;;;23.10;58.40;;;;;;5017389;28;20034;-66
2022/10/29 05:53:05;;;;;;;1.65;1.10;;;23.10;58.40;;;;;;5016780;28;20477;-66
2022/10/29 05:55:33;;;;;;;1.20;0.90;;;23.10;58.40;;;;;;5014963;28;20021;-66
2022/10/29 05:58:04;;;;;;;1.48;0.95;;;23.10;58.40;;;;;;5020670;28;20476;-67
2022/10/29 06:00:31;;;;;;;1.20;0.90;;;23.10;58.40;;;;;;5017296;28;20033;-67
2022/10/29 06:02:57;;;;;;;1.80;1.10;;;23.10;58.90;;;;;;5013087;28;20023;-67
2022/10/29 06:05:23;;;;;;;1.40;1.00;;;23.10;58.40;;;;;;5011579;28;20033;-66
2022/10/29 06:07:53;;;;;;;1.88;1.27;;;23.10;58.40;;;;;;5014126;28;20051;-66
2022/10/29 06:10:19;;;;;;;1.27;1.00;;;23.10;58.30;;;;;;5016474;28;20477;-67
2022/10/29 06:12:44;;;;;;;1.40;0.90;;;23.10;58.40;;;;;;5019330;28;20034;-67
2022/10/29 06:15:10;;;;;;;1.95;0.90;;;23.10;58.40;;;;;;5016208;28;20033;-68
2022/10/29 06:17:40;;;;;;;1.30;0.98;;;23.10;58.40;;;;;;5013631;28;20032;-67
2022/10/29 06:20:07;;;;;;;1.83;1.10;;;23.10;58.40;;;;;;5014340;28;20110;-67
2022/10/29 06:22:32;;;;;;;1.48;1.00;;;23.10;58.40;;;;;;5013797;28;20062;-67
2022/10/29 06:24:58;;;;;;;1.50;1.00;;;23.10;58.40;;;;;;5016813;28;20508;-67
2022/10/29 06:27:24;;;;;;;1.48;0.82;;;23.10;58.40;;;;;;5015780;28;20033;-67
2022/10/29 06:29:50;;;;;;;1.27;1.00;;;23.10;58.40;;;;;;5015216;28;20036;-67
2022/10/29 06:32:16;;;;;;;1.38;0.90;;;23.10;58.40;;;;;;5014819;28;20156;-67
2022/10/29 06:34:41;;;;;;;2.85;1.05;;;23.10;58.40;;;;;;5015505;28;20021;-68
2022/10/29 06:37:07;;;;;;;1.52;1.00;;;23.10;58.30;;;;;;5008502;28;20109;-68
2022/10/29 06:39:33;;;;;;;1.00;0.90;;;23.10;58.30;;;;;;5005010;28;20088;-67
2022/10/29 06:41:58;;;;;;;1.30;1.00;;;23.10;58.30;;;;;;5016551;28;20108;-68
2022/10/29 06:44:24;;;;;;;1.65;0.90;;;23.10;58.30;;;;;;5022506;28;20512;-68
2022/10/29 06:46:49;;;;;;;1.73;1.00;;;23.00;58.30;;;;;;5025389;28;20044;-67
2022/10/29 06:49:15;;;;;;;1.60;1.10;;;23.00;58.30;;;;;;5023955;28;20022;-67
2022/10/29 06:51:41;;;;;;;1.30;0.90;;;23.00;58.30;;;;;;5011512;28;20026;-68
2022/10/29 06:54:06;;;;;;;1.55;1.10;;;23.00;58.20;;;;;;5018145;28;20085;-67
2022/10/29 06:56:33;;;;;;;2.28;1.48;;;23.00;58.30;;;;;;5018326;28;20030;-67
2022/10/29 06:58:59;;;;;;;2.13;1.17;;;23.00;58.20;;;;;;5020676;28;20025;-68
2022/10/29 07:01:27;;;;;;;1.30;1.00;;;23.00;58.20;;;;;;5017285;28;20120;-67
2022/10/29 07:03:53;;;;;;;1.73;1.15;;;23.00;58.30;;;;;;5011100;28;20128;-67
2022/10/29 07:06:19;;;;;;;1.58;1.20;;;23.00;58.20;;;;;;5016992;28;20642;-68
2022/10/29 07:08:45;;;;;;;1.75;1.27;;;23.00;58.20;;;;;;5019143;28;20116;-68
2022/10/29 07:11:10;;;;;;;1.67;1.00;;;23.00;58.20;;;;;;5020743;28;20162;-67
2022/10/29 07:13:36;;;;;;;1.60;1.05;;;23.00;58.20;;;;;;5006571;28;20026;-67
2022/10/29 07:16:01;;;;;;;1.80;1.27;;;22.90;58.10;;;;;;5003532;28;20031;-68
2022/10/29 07:18:27;;;;;;;1.88;1.20;;;23.00;58.20;;;;;;5009604;28;20354;-67
2022/10/29 07:20:53;;;;;;;2.10;1.60;;;23.00;58.20;;;;;;5011377;28;20029;-67
2022/10/29 07:23:18;;;;;;;2.17;1.30;;;23.00;58.20;;;;;;5010843;28;20029;-67
2022/10/29 07:25:44;;;;;;;2.33;1.30;;;22.90;58.10;;;;;;5002491;28;20042;-67
2022/10/29 07:28:13;;;;;;;1.63;1.02;;;22.90;58.10;;;;;;5002129;28;20497;-67
2022/10/29 07:30:39;;;;;;;2.58;1.52;;;22.90;58.10;;;;;;5009368;28;20389;-67
2022/10/29 07:33:05;;;;;;;1.73;1.30;;;23.00;58.20;;;;;;5025666;28;20045;-67
2022/10/29 07:35:33;;;;;;;2.03;1.30;;;23.00;58.20;;;;;;5028521;28;20142;-68
2022/10/29 07:38:00;;;;;;;1.98;1.23;;;22.90;58.20;;;;;;5014075;28;20021;-67
2022/10/29 07:40:25;;;;;;;2.00;1.40;;;22.90;58.20;;;;;;5012992;28;20034;-67
2022/10/29 07:42:52;;;;;;;2.05;1.27;;;22.90;58.20;;;;;;5016199;28;20029;-63
2022/10/29 07:45:17;;;;;;;1.85;1.30;;;22.90;58.10;;;;;;5024519;28;20388;-64
2022/10/29 07:47:43;;;;;;;2.28;1.33;;;22.90;58.10;;;;;;5021516;28;20021;-64
2022/10/29 07:50:09;;;;;;;2.40;1.30;;;22.90;58.10;;;;;;5007880;28;20025;-65
2022/10/29 07:52:35;;;;;;;2.42;1.50;;;22.90;58.10;;;;;;5011221;28;20052;-64
2022/10/29 07:55:01;;;;;;;2.40;1.40;;;22.90;58.10;;;;;;5012375;28;20502;-67
2022/10/29 07:57:27;;;;;;;2.50;1.27;;;22.90;58.10;;;;;;5014793;28;20018;-64
2022/10/29 07:59:53;;;;;;;2.22;1.33;;;22.90;58.10;;;;;;5009620;28;20076;-65
2022/10/29 08:02:18;;;;;;;2.55;1.30;;;22.90;58.10;;;;;;5007052;28;20039;-64
2022/10/29 08:04:44;;;;;;;3.13;1.52;;;22.90;58.10;;;;;;5007356;28;20101;-64
2022/10/29 08:07:10;;;;;;;2.55;1.40;;;22.90;58.10;;;;;;5009078;28;20098;-64
2022/10/29 08:09:35;;;;;;;3.15;1.98;;;22.90;58.00;;;;;;5015889;28;20087;-64
2022/10/29 08:12:03;;;;;;;2.92;1.50;;;22.90;58.00;;;;;;5012085;28;20030;-65
2022/10/29 08:14:29;;;;;;;2.33;1.45;;;22.90;58.10;;;;;;5008613;28;20096;-64
2022/10/29 08:16:55;;;;;;;2.72;1.40;;;22.90;58.10;;;;;;5008988;28;20046;-65
2022/10/29 08:19:21;;;;;;;2.05;1.48;;;22.90;58.10;;;;;;5026598;28;20079;-66
2022/10/29 08:21:47;;;;;;;2.47;1.40;;;22.90;58.10;;;;;;5021215;28;20112;-65
2022/10/29 08:24:12;;;;;;;2.53;1.30;;;22.90;58.20;;;;;;5020436;28;20134;-63
2022/10/29 08:26:38;;;;;;;1.70;1.10;;;22.90;58.10;;;;;;5012979;28;20026;-64
2022/10/29 08:29:04;;;;;;;2.28;1.40;;;22.90;58.10;;;;;;5016184;28;20501;-63
2022/10/29 08:31:29;;;;;;;2.22;1.40;;;22.90;58.60;;;;;;5019207;28;20119;-63
2022/10/29 08:33:55;;;;;;;2.60;1.50;;;22.90;58.10;;;;;;5020806;28;20026;-63
2022/10/29 08:36:20;;;;;;;1.75;1.20;;;22.90;58.20;;;;;;5010135;28;20030;-64
2022/10/29 08:38:46;;;;;;;2.17;1.40;;;22.90;58.20;;;;;;5012216;28;20164;-64
2022/10/29 08:41:46;;;;;;;2.58;1.40;;;22.90;58.20;;;;;;5012320;28;20079;-63
2022/10/29 08:44:46;;;;;;;2.13;1.50;;;22.90;58.10;;;;;;5014617;28;20499;-66
2022/10/29 08:47:19;;;;;;;;;;;22.90;58.10;;;;;;5015049;28;20511;-64
2022/10/29 08:50:09;;;;;;;1.90;1.30;;;22.90;58.10;;;;;;5014317;28;20383;-64
2022/10/29 08:52:37;;;;;;;2.55;1.60;;;22.90;58.10;;;;;;5012522;28;20042;-63
2022/10/29 08:55:19;;;;;;;3.75;1.60;;;22.90;58.10;;;;;;5014162;28;20478;-64
2022/10/29 08:57:56;;;;;;;2.88;1.63;;;22.90;58.20;;;;;;5010825;28;20037;-64
2022/10/29 09:00:35;;;;;;;2.40;1.40;;;22.90;58.20;;;;;;5017685;28;20030;-64
2022/10/29 09:03:01;;;;;;;;;;;22.90;58.20;;;;;;5009872;28;20026;-64
2022/10/29 09:05:49;;;;;;;2.30;1.35;;;22.90;58.20;;;;;;5004465;28;19909;-63
2022/10/29 09:08:38;;;;;;;4.20;2.00;;;22.90;58.20;;;;;;5000043;28;20493;-64
2022/10/29 09:11:42;;;;;;;3.20;1.60;;;22.90;58.20;;;;;;5010099;28;20106;-64
2022/10/29 09:14:39;;;;;;;2.47;1.50;;;22.90;58.20;;;;;;4996587;28;20046;-63
2022/10/29 09:17:31;;;;;;;2.78;1.63;;;22.90;58.20;;;;;;5018062;28;20079;-64
2022/10/29 09:20:23;;;;;;;2.10;1.30;;;22.90;58.20;;;;;;5022242;28;20480;-63
2022/10/29 09:23:07;;;;;;;2.35;1.58;;;22.90;58.20;;;;;;5010754;28;20034;-63
2022/10/29 09:26:00;;;;;;;3.53;1.75;;;22.90;58.20;;;;;;5012658;28;20037;-63
2022/10/29 09:28:35;;;;;;;3.05;1.80;;;22.90;57.80;;;;;;5017153;28;20037;-62
2022/10/29 09:31:16;;;;;;;3.80;2.30;;;22.90;57.20;;;;;;5020381;28;20033;-64
2022/10/29 09:33:45;;;;;;;4.60;1.83;;;22.90;56.80;;;;;;5014805;28;20026;-64
2022/10/29 09:36:16;;;;;;;3.80;2.20;;;22.90;56.60;;;;;;5013399;28;20057;-63
2022/10/29 09:38:58;;;;;;;4.05;2.35;;;22.80;56.40;;;;;;5022985;28;20029;-63
2022/10/29 09:41:30;;;;;;;4.80;2.00;;;22.90;56.30;;;;;;5011996;28;20115;-62
2022/10/29 09:44:02;;;;;;;6.55;2.25;;;22.90;56.30;;;;;;5011994;28;20022;-63
2022/10/29 09:46:35;;;;;;;4.70;2.20;;;22.90;56.10;;;;;;5005359;28;20022;-63
2022/10/29 09:49:18;;;;;;;4.93;2.10;;;22.90;56.10;;;;;;5004799;28;20026;-65
2022/10/29 09:51:55;;;;;;;4.75;2.20;;;22.80;56.20;;;;;;5014676;28;20473;-63
2022/10/29 09:54:24;;;;;;;3.65;2.15;;;22.80;56.20;;;;;;5014681;28;20073;-63
2022/10/29 09:56:50;;;;;;;3.92;2.30;;;22.80;56.20;;;;;;5010079;28;20026;-63
2022/10/29 09:59:18;;;;;;;3.08;2.00;;;22.80;56.20;;;;;;5010574;28;20026;-63
2022/10/29 10:01:46;;;;;;;4.20;2.05;;;22.80;56.10;;;;;;5017472;28;20037;-63
2022/10/29 10:04:23;;;;;;;4.13;2.05;;;22.80;56.00;;;;;;5015188;28;20029;-62
2022/10/29 10:07:07;;;;;;;4.90;2.05;;;22.80;55.90;;;;;;5024905;28;20034;-63
2022/10/29 10:10:00;;;;;;;4.05;2.10;;;22.80;56.00;;;;;;5016573;28;20029;-62
2022/10/29 10:12:42;;;;;;;4.13;2.20;;;22.80;55.90;;;;;;5013691;28;20489;-61
2022/10/29 10:15:26;;;;;;;4.95;2.25;;;22.80;56.00;;;;;;5017835;28;20389;-63
2022/10/29 10:17:54;;;;;;;5.50;1.88;;;22.80;56.00;;;;;;5017947;28;20552;-63
2022/10/29 10:20:31;;;;;;;3.83;1.80;;;22.80;56.10;;;;;;5010817;28;20088;-62
2022/10/29 10:22:57;;;;;;;5.03;2.00;;;22.80;56.00;;;;;;5010151;28;20076;-62
2022/10/29 10:25:39;;;;;;;3.70;1.95;;;22.80;56.50;;;;;;5009736;28;20088;-62
2022/10/29 10:28:16;;;;;;;3.25;1.65;;;22.80;55.90;;;;;;5012903;28;20022;-62
2022/10/29 10:30:43;;;;;;;4.95;1.88;;;22.80;56.00;;;;;;5021125;28;20392;-62
2022/10/29 10:33:23;;;;;;;3.47;1.77;;;22.80;56.10;;;;;;5013942;28;20465;-62
2022/10/29 10:35:49;;;;;;;6.82;2.10;;;22.80;56.20;;;;;;5014157;28;20031;-63
2022/10/29 10:38:15;;;;;;;3.65;1.80;;;22.80;56.20;;;;;;5013531;28;20029;-63
2022/10/29 10:40:41;;;;;;;3.10;1.67;;;22.80;56.20;;;;;;5011220;28;20535;-62
2022/10/29 10:43:19;;;;;;;3.33;2.05;;;22.80;56.20;;;;;;5018844;28;20567;-64
2022/10/29 10:45:56;;;;;;;3.25;1.70;;;22.80;56.30;;;;;;5012352;28;20481;-62
2022/10/29 10:48:25;;;;;;;3.85;1.77;;;22.80;56.30;;;;;;5016952;28;20097;-63
2022/10/29 10:50:52;;;;;;;3.72;1.80;;;22.80;56.40;;;;;;5020199;28;20038;-62
2022/10/29 10:53:22;;;;;;;3.33;1.75;;;22.80;56.40;;;;;;5024514;28;20469;-63
2022/10/29 10:55:50;;;;;;;;;;;22.80;56.60;;;;;;5015089;28;20026;-63
2022/10/29 10:58:54;;;;;;;3.78;1.67;;;22.80;56.40;;;;;;5013414;28;19913;-64
2022/10/29 11:01:33;;;;;;;4.53;1.85;;;22.80;56.40;;;;;;5005308;28;20441;-64
2022/10/29 11:04:27;;;;;;;3.85;1.67;;;22.80;56.50;;;;;;5018699;28;20481;-64
2022/10/29 11:06:57;;;;;;;4.80;1.98;;;22.80;56.90;;;;;;5017963;28;20108;-64
2022/10/29 11:09:31;;;;;;;;;;;22.80;56.40;;;;;;5015727;28;20026;-65
2022/10/29 11:12:08;;;;;;;3.78;2.00;;;22.80;56.30;;;;;;5017362;28;19905;-62
2022/10/29 11:15:11;;;;;;;2.92;1.50;;;22.80;56.40;;;;;;5013945;28;20501;-63
2022/10/29 11:17:47;;;;;;;3.42;1.77;;;22.80;56.30;;;;;;4956556;28;20490;-61
2022/10/29 11:20:23;;;;;;;5.38;2.13;;;22.70;56.30;;;;;;5006026;28;20100;-61
2022/10/29 11:23:36;;;;;;;3.63;1.60;;;22.70;56.40;;;;;;5018363;28;20040;-61
2022/10/29 11:26:08;;;;;;;2.97;1.63;;;22.80;56.40;;;;;;4972730;28;20043;-62
2022/10/29 11:28:42;;;;;;;4.25;1.92;;;22.80;56.40;;;;;;5008973;28;20029;-61
2022/10/29 11:31:15;;;;;;;4.57;2.00;;;22.80;56.50;;;;;;5002492;28;20035;-61
2022/10/29 11:33:57;;;;;;;3.65;1.63;;;22.80;56.50;;;;;;5011327;28;20037;-63
2022/10/29 11:36:27;;;;;;;4.82;1.75;;;22.80;56.50;;;;;;5009997;28;20034;-64
2022/10/29 11:39:09;;;;;;;3.55;2.03;;;22.80;56.60;;;;;;5016977;28;20108;-62
2022/10/29 11:41:57;;;;;;;4.25;1.95;;;22.80;56.60;;;;;;5017747;28;20037;-61
2022/10/29 11:44:24;;;;;;;4.47;1.80;;;22.80;56.50;;;;;;5011259;28;20022;-62
2022/10/29 11:47:08;;;;;;;3.63;1.90;;;22.80;56.50;;;;;;5015060;28;20069;-61
2022/10/29 11:50:03;;;;;;;3.47;2.00;;;22.80;56.50;;;;;;5020148;28;20030;-63
2022/10/29 11:52:54;;;;;;;3.53;1.80;;;22.80;56.50;;;;;;5020836;28;20033;-61
2022/10/29 11:56:00;;;;;;;3.78;1.85;;;22.80;56.60;;;;;;5005146;28;20128;-61
2022/10/29 11:58:35;;;;;;;4.85;2.03;;;22.80;56.60;;;;;;5018419;28;20068;-64
2022/10/29 12:01:01;;;;;;;3.45;1.80;;;22.80;56.60;;;;;;5022863;28;20135;-62
2022/10/29 12:03:31;;;;;;;4.30;1.80;;;22.90;56.80;;;;;;5015604;28;20497;-61
2022/10/29 12:05:59;;;;;;;3.22;1.60;;;22.80;56.90;;;;;;5009441;28;20030;-63
2022/10/29 12:08:25;;;;;;;3.83;1.90;;;22.80;56.90;;;;;;5002796;28;20033;-63
2022/10/29 12:11:08;;;;;;;3.88;1.88;;;22.90;57.00;;;;;;5006875;28;20695;-62
2022/10/29 12:13:46;;;;;;;3.08;1.63;;;22.80;56.90;;;;;;5014871;28;20022;-62
2022/10/29 12:16:41;;;;;;;5.50;1.50;;;22.80;57.00;;;;;;5010579;28;20397;-63
2022/10/29 12:19:30;;;;;;;5.82;1.55;;;22.90;57.00;;;;;;5009924;28;20105;-63
2022/10/29 12:21:56;;;;;;;3.33;1.52;;;22.90;56.90;;;;;;5009486;28;20041;-62
2022/10/29 12:24:47;;;;;;;2.95;1.67;;;22.90;57.00;;;;;;5006861;28;20113;-62
2022/10/29 12:27:54;;;;;;;3.22;1.50;;;22.90;56.90;;;;;;5018204;28;20061;-63
2022/10/29 12:30:22;;;;;;;3.22;1.52;;;22.90;56.90;;;;;;4991871;28;20464;-63
2022/10/29 12:32:51;;;;;;;5.43;1.88;;;22.90;56.90;;;;;;5017162;28;20607;-65
2022/10/29 12:35:19;;;;;;;3.47;1.70;;;22.90;57.00;;;;;;5014595;28;20056;-64
2022/10/29 12:37:53;;;;;;;3.17;1.70;;;22.90;57.10;;;;;;5013400;28;20052;-64
2022/10/29 12:40:23;;;;;;;4.43;1.83;;;22.90;57.10;;;;;;5015536;28;20140;-62
2022/10/29 12:42:50;;;;;;;5.00;2.10;;;22.90;57.10;;;;;;5012315;28;20367;-63
2022/10/29 12:45:37;;;;;;;3.60;1.90;;;22.80;57.00;;;;;;5008234;28;20076;-63
2022/10/29 12:48:11;;;;;;;5.25;2.00;;;22.90;57.10;;;;;;5013928;28;20030;-62
2022/10/29 12:50:58;;;;;;;3.78;1.65;;;22.90;57.20;;;;;;5017204;28;20075;-62
2022/10/29 12:54:06;;;;;;;3.45;1.80;;;22.90;57.20;;;;;;5012569;28;20033;-62
2022/10/29 12:56:32;;;;;;;4.88;1.80;;;22.90;57.20;;;;;;4941648;29;20036;-64
2022/10/29 12:59:24;;;;;;;3.88;1.90;;;22.90;57.30;;;;;;4945651;29;20023;-63
2022/10/29 13:01:53;;;;;;;3.92;1.60;;;22.90;57.30;;;;;;4971491;28;20031;-62
2022/10/29 13:04:26;;;;;;;3.08;1.70;;;22.90;57.30;;;;;;4997293;28;20033;-62
2022/10/29 13:07:21;;;;;;;3.72;1.80;;;22.90;57.30;;;;;;4983810;28;20398;-63
2022/10/29 13:09:47;;;;;;;3.30;1.58;;;22.90;57.40;;;;;;4996695;28;20023;-62